createdAt,value
2022-10-22T00:01:36.644Z,28.48
2022-10-22T00:04:06.236Z,27.52
2022-10-22T00:06:35.963Z,27.48
2022-10-22T00:09:05.482Z,26.92
2022-10-22T00:11:36.561Z,28.45
2022-10-22T00:14:06.024Z,27.23
2022-10-22T00:16:35.572Z,26.65
2022-10-22T00:19:05.182Z,28.67
2022-10-22T00:21:34.763Z,30.08
2022-10-22T00:24:07.342Z,28.65
2022-10-22T00:26:41.556Z,29.63
2022-10-22T00:29:10.791Z,27.92
2022-10-22T00:31:40.341Z,27.33
2022-10-22T00:34:09.655Z,27.33
2022-10-22T00:36:39.069Z,27.35
2022-10-22T00:39:08.258Z,26.67
2022-10-22T00:41:37.771Z,29.08
2022-10-22T00:44:08.715Z,29.50
2022-10-22T00:46:38.223Z,29.83
2022-10-22T00:49:07.489Z,28.98
2022-10-22T00:51:38.025Z,28.45
2022-10-22T00:54:10.100Z,30.70
2022-10-22T00:56:39.902Z,40.70
2022-10-22T00:59:13.099Z,34.13
2022-10-22T01:01:42.520Z,30.48
2022-10-22T01:04:12.003Z,29.95
2022-10-22T01:06:41.433Z,28.05
2022-10-22T01:09:19.782Z,29.13
2022-10-22T01:12:02.515Z,28.50
2022-10-22T01:14:39.719Z,27.48
2022-10-22T01:17:15.051Z,28.60
2022-10-22T01:19:59.603Z,29.88
2022-10-22T01:22:34.400Z,28.75
2022-10-22T01:25:10.493Z,29.23
2022-10-22T01:27:57.353Z,26.83
2022-10-22T01:30:28.624Z,27.02
2022-10-22T01:33:01.925Z,26.75
2022-10-22T01:35:37.248Z,24.85
2022-10-22T01:38:14.199Z,26.02
2022-10-22T01:40:44.707Z,27.38
2022-10-22T01:43:14.463Z,26.77
2022-10-22T01:45:48.487Z,26.63
2022-10-22T01:48:44.108Z,29.65
2022-10-22T01:51:28.594Z,26.83
2022-10-22T01:54:04.190Z,26.40
2022-10-22T01:56:47.084Z,27.45
2022-10-22T01:59:26.094Z,26.27
2022-10-22T02:02:05.110Z,25.35
2022-10-22T02:04:42.646Z,26.83
2022-10-22T02:07:15.296Z,33.45
2022-10-22T02:09:46.035Z,30.02
2022-10-22T02:12:17.690Z,30.25
2022-10-22T02:14:49.313Z,32.65
2022-10-22T02:17:23.560Z,29.10
2022-10-22T02:19:57.425Z,28.15
2022-10-22T02:22:27.612Z,27.65
2022-10-22T02:24:57.984Z,26.42
2022-10-22T02:27:32.327Z,25.50
2022-10-22T02:34:51.948Z,24.80
2022-10-22T02:37:22.687Z,28.45
2022-10-22T02:39:53.849Z,27.17
2022-10-22T02:42:24.356Z,28.35
2022-10-22T02:44:53.866Z,28.77
2022-10-22T02:47:23.267Z,27.02
2022-10-22T02:49:53.868Z,26.90
2022-10-22T02:52:23.423Z,28.58
2022-10-22T02:54:52.646Z,27.50
2022-10-22T02:57:22.648Z,28.00
2022-10-22T02:59:52.130Z,34.70
2022-10-22T03:02:21.574Z,30.35
2022-10-22T03:04:52.192Z,26.85
2022-10-22T03:07:21.668Z,25.67
2022-10-22T03:09:50.974Z,26.23
2022-10-22T03:12:20.614Z,27.55
2022-10-22T03:14:49.832Z,29.40
2022-10-22T03:17:19.263Z,27.60
2022-10-22T03:19:48.554Z,27.65
2022-10-22T03:22:24.771Z,28.33
2022-10-22T03:24:59.646Z,28.27
2022-10-22T03:27:33.592Z,27.88
2022-10-22T03:30:03.896Z,28.85
2022-10-22T03:32:33.399Z,27.25
2022-10-22T03:35:02.739Z,24.23
2022-10-22T03:37:35.439Z,27.00
2022-10-22T03:40:05.984Z,26.85
2022-10-22T03:42:35.815Z,28.17
2022-10-22T03:45:05.492Z,27.75
2022-10-22T03:47:35.451Z,26.02
2022-10-22T03:50:04.915Z,25.83
2022-10-22T03:52:39.438Z,24.70
2022-10-22T03:55:10.172Z,25.98
2022-10-22T03:57:40.069Z,25.60
2022-10-22T04:00:11.752Z,24.75
2022-10-22T04:02:41.248Z,24.35
2022-10-22T04:05:11.019Z,25.20
2022-10-22T04:07:42.282Z,22.90
2022-10-22T04:10:11.958Z,23.73
2022-10-22T04:12:41.410Z,24.52
2022-10-22T04:15:11.606Z,24.23
2022-10-22T04:17:41.286Z,25.02
2022-10-22T04:20:12.525Z,28.65
2022-10-22T04:22:43.341Z,27.55
2022-10-22T04:25:12.939Z,26.63
2022-10-22T04:27:42.803Z,29.77
2022-10-22T04:30:13.315Z,30.90
2022-10-22T04:32:42.796Z,28.00
2022-10-22T04:35:12.054Z,25.95
2022-10-22T04:37:43.156Z,26.02
2022-10-22T04:40:13.820Z,26.23
2022-10-22T04:42:43.280Z,25.67
2022-10-22T04:45:13.265Z,25.15
2022-10-22T04:47:43.084Z,25.95
2022-10-22T04:50:12.493Z,26.25
2022-10-22T04:52:43.452Z,25.63
2022-10-22T04:55:12.885Z,25.00
2022-10-22T04:57:42.599Z,25.33
2022-10-22T05:00:13.215Z,23.35
2022-10-22T05:02:44.769Z,23.98
2022-10-22T05:05:14.023Z,23.08
2022-10-22T05:07:44.949Z,24.90
2022-10-22T05:10:14.305Z,25.33
2022-10-22T05:12:43.892Z,23.55
2022-10-22T05:15:13.474Z,23.23
2022-10-22T05:17:43.449Z,24.55
2022-10-22T05:20:13.378Z,25.08
2022-10-22T05:22:44.362Z,23.52
2022-10-22T05:25:13.757Z,26.77
2022-10-22T05:27:43.563Z,25.08
2022-10-22T05:30:13.773Z,26.60
2022-10-22T05:32:43.321Z,24.75
2022-10-22T05:35:12.486Z,25.98
2022-10-22T05:37:43.932Z,26.58
2022-10-22T05:40:26.406Z,28.88
2022-10-22T05:42:56.765Z,27.88
2022-10-22T05:45:25.962Z,27.55
2022-10-22T05:47:55.361Z,27.23
2022-10-22T05:50:24.704Z,28.02
2022-10-22T05:52:55.595Z,25.60
2022-10-22T05:55:25.182Z,29.45
2022-10-22T05:57:54.642Z,28.65
2022-10-22T06:00:24.043Z,27.45
2022-10-22T06:02:54.043Z,28.73
2022-10-22T06:05:23.268Z,26.38
2022-10-22T06:07:54.829Z,28.80
2022-10-22T06:10:24.941Z,35.40
2022-10-22T06:12:54.305Z,66.53
2022-10-22T06:15:23.611Z,58.83
2022-10-22T06:17:52.997Z,40.47
2022-10-22T06:20:22.361Z,31.90
2022-10-22T06:22:54.527Z,27.17
2022-10-22T06:25:24.267Z,28.50
2022-10-22T06:27:54.094Z,25.75
2022-10-22T06:30:23.295Z,26.63
2022-10-22T06:32:53.066Z,27.27
2022-10-22T06:35:22.379Z,28.00
2022-10-22T06:37:51.815Z,45.63
2022-10-22T06:40:22.738Z,45.22
2022-10-22T06:42:52.142Z,42.72
2022-10-22T06:45:21.341Z,32.15
2022-10-22T06:47:51.100Z,30.40
2022-10-22T06:50:20.687Z,27.42
2022-10-22T06:52:50.070Z,29.77
2022-10-22T06:55:19.468Z,45.55
2022-10-22T06:57:50.315Z,56.92
2022-10-22T07:00:20.254Z,28.75
2022-10-22T07:02:57.631Z,25.42
2022-10-22T07:05:28.764Z,28.00
2022-10-22T07:07:58.194Z,26.10
2022-10-22T07:10:29.966Z,26.08
2022-10-22T07:13:01.893Z,23.40
2022-10-22T07:15:31.183Z,23.75
2022-10-22T07:18:00.664Z,23.10
2022-10-22T07:20:29.890Z,25.17
2022-10-22T07:22:59.458Z,25.88
2022-10-22T07:25:28.795Z,24.70
2022-10-22T07:27:58.199Z,23.05
2022-10-22T07:30:29.017Z,29.80
2022-10-22T07:32:58.447Z,29.65
2022-10-22T07:35:27.716Z,28.88
2022-10-22T07:37:57.671Z,30.58
2022-10-22T07:40:27.038Z,29.52
2022-10-22T07:42:56.618Z,27.02
2022-10-22T07:45:27.378Z,26.55
2022-10-22T07:47:56.961Z,26.30
2022-10-22T07:50:26.272Z,26.05
2022-10-22T07:52:57.533Z,26.08
2022-10-22T07:55:28.206Z,27.08
2022-10-22T07:57:57.779Z,26.45
2022-10-22T08:00:28.492Z,30.52
2022-10-22T08:02:58.006Z,30.58
2022-10-22T08:05:27.363Z,29.20
2022-10-22T08:07:56.766Z,30.08
2022-10-22T08:10:25.901Z,30.40
2022-10-22T08:12:55.423Z,33.85
2022-10-22T08:15:25.653Z,27.55
2022-10-22T08:17:56.770Z,28.10
2022-10-22T08:20:26.058Z,29.00
2022-10-22T08:22:55.520Z,31.55
2022-10-22T08:25:24.908Z,31.17
2022-10-22T08:27:54.543Z,27.85
2022-10-22T08:30:23.786Z,26.83
2022-10-22T08:32:54.142Z,28.77
2022-10-22T08:35:25.161Z,26.08
2022-10-22T08:37:54.574Z,27.27
2022-10-22T08:40:29.861Z,28.13
2022-10-22T08:43:21.523Z,28.58
2022-10-22T08:45:59.883Z,27.25
2022-10-22T08:48:43.374Z,25.90
2022-10-22T08:51:19.244Z,28.50
2022-10-22T08:54:08.021Z,28.08
2022-10-22T08:56:39.454Z,30.77
2022-10-22T08:59:15.284Z,31.08
2022-10-22T09:04:25.496Z,28.10
2022-10-22T09:06:59.608Z,26.95
2022-10-22T09:09:35.486Z,28.55
2022-10-22T09:12:06.126Z,33.53
2022-10-22T09:14:35.655Z,35.72
2022-10-22T09:17:17.602Z,32.25
2022-10-22T09:19:58.405Z,32.00
2022-10-22T09:22:36.144Z,29.15
2022-10-22T09:25:19.220Z,28.88
2022-10-22T09:27:49.250Z,31.15
2022-10-22T09:30:20.044Z,34.45
2022-10-22T09:32:52.301Z,34.20
2022-10-22T09:35:25.597Z,45.17
2022-10-22T09:37:57.958Z,31.08
2022-10-22T09:40:27.475Z,32.20
2022-10-22T09:42:56.822Z,30.77
2022-10-22T09:45:28.282Z,30.75
2022-10-22T09:48:12.215Z,32.75
2022-10-22T09:50:45.767Z,35.33
2022-10-22T09:53:20.767Z,30.00
2022-10-22T10:00:58.281Z,30.17
2022-10-22T10:03:30.838Z,33.55
2022-10-22T10:06:05.037Z,34.38
2022-10-22T10:08:37.174Z,30.30
2022-10-22T10:11:12.015Z,26.65
2022-10-22T10:13:52.233Z,28.83
2022-10-22T10:16:36.033Z,30.05
2022-10-22T10:19:29.030Z,28.98
2022-10-22T10:22:07.362Z,28.48
2022-10-22T10:25:05.725Z,28.08
2022-10-22T10:27:39.518Z,28.17
2022-10-22T10:30:14.746Z,26.70
2022-10-22T10:35:47.797Z,25.80
2022-10-22T10:38:34.071Z,23.42
2022-10-22T10:43:52.007Z,24.45
2022-10-22T10:46:36.962Z,21.15
2022-10-22T10:49:12.193Z,20.05
2022-10-22T10:51:53.922Z,21.75
2022-10-22T10:54:52.350Z,22.00
2022-10-22T10:57:32.058Z,15.85
2022-10-22T11:00:07.451Z,14.05
2022-10-22T11:03:31.410Z,13.20
2022-10-22T11:06:04.305Z,13.02
2022-10-22T11:08:37.416Z,14.75
2022-10-22T11:11:12.308Z,13.65
2022-10-22T11:13:50.785Z,12.70
2022-10-22T11:16:25.207Z,14.57
2022-10-22T11:18:59.626Z,14.27
2022-10-22T11:21:34.266Z,13.40
2022-10-22T11:24:12.430Z,13.88
2022-10-22T11:26:50.092Z,13.00
2022-10-22T11:29:27.294Z,14.48
2022-10-22T11:31:59.701Z,13.57
2022-10-22T11:34:35.598Z,13.52
2022-10-22T11:37:07.557Z,14.18
2022-10-22T11:39:44.029Z,13.75
2022-10-22T11:42:20.900Z,12.75
2022-10-22T11:45:01.685Z,12.45
2022-10-22T11:47:34.585Z,12.90
2022-10-22T11:50:21.701Z,12.95
2022-10-22T11:53:00.658Z,13.63
2022-10-22T11:55:35.844Z,13.73
2022-10-22T11:58:30.613Z,12.80
2022-10-22T12:01:23.399Z,13.85
2022-10-22T12:03:54.801Z,12.65
2022-10-22T12:06:25.621Z,13.50
2022-10-22T12:09:01.294Z,13.93
2022-10-22T12:16:57.489Z,15.20
2022-10-22T12:19:31.450Z,13.90
2022-10-22T12:22:10.214Z,15.02
2022-10-22T12:24:42.941Z,15.95
2022-10-22T12:27:22.619Z,15.68
2022-10-22T12:29:56.930Z,17.40
2022-10-22T12:32:38.412Z,16.25
2022-10-22T12:35:09.991Z,16.25
2022-10-22T12:37:39.876Z,18.17
2022-10-22T12:40:20.514Z,18.50
2022-10-22T12:42:51.679Z,17.42
2022-10-22T12:45:24.066Z,18.00
2022-10-22T12:47:59.229Z,18.55
2022-10-22T12:50:38.268Z,17.60
2022-10-22T12:53:08.271Z,18.15
2022-10-22T12:55:39.376Z,17.65
2022-10-22T12:58:09.285Z,19.20
2022-10-22T13:00:38.957Z,18.75
2022-10-22T13:03:25.068Z,18.85
2022-10-22T13:05:54.567Z,20.15
2022-10-22T13:08:29.186Z,20.88
2022-10-22T13:11:07.799Z,20.35
2022-10-22T13:13:45.703Z,20.75
2022-10-22T13:16:21.489Z,20.85
2022-10-22T13:21:28.343Z,20.25
2022-10-22T13:23:59.883Z,22.15
2022-10-22T13:26:35.505Z,20.80
2022-10-22T13:29:11.078Z,22.15
2022-10-22T13:31:47.534Z,22.58
2022-10-22T13:34:21.560Z,21.48
2022-10-22T13:36:51.492Z,21.83
2022-10-22T13:39:21.919Z,21.67
2022-10-22T13:41:51.850Z,21.88
2022-10-22T13:44:21.533Z,22.25
2022-10-22T13:46:51.240Z,23.10
2022-10-22T13:49:24.332Z,21.42
2022-10-22T13:51:57.086Z,22.42
2022-10-22T13:54:29.137Z,22.48
2022-10-22T13:56:58.813Z,23.45
2022-10-22T13:59:28.065Z,22.13
2022-10-22T14:01:57.824Z,22.27
2022-10-22T14:04:28.698Z,23.90
2022-10-22T14:07:00.007Z,22.23
2022-10-22T14:09:32.127Z,23.42
2022-10-22T14:12:01.687Z,22.40
2022-10-22T14:14:31.027Z,23.33
2022-10-22T14:17:00.473Z,26.73
2022-10-22T14:19:32.681Z,22.67
2022-10-22T14:22:05.189Z,23.15
2022-10-22T14:24:34.442Z,22.88
2022-10-22T14:27:03.892Z,24.60
2022-10-22T14:29:33.177Z,23.80
2022-10-22T14:32:02.696Z,24.30
2022-10-22T14:34:33.443Z,24.88
2022-10-22T14:37:03.600Z,24.02
2022-10-22T14:39:32.907Z,24.13
2022-10-22T14:42:02.516Z,26.00
2022-10-22T14:44:32.069Z,27.25
2022-10-22T14:47:01.797Z,26.67
2022-10-22T14:49:32.448Z,24.00
2022-10-22T14:52:02.246Z,26.05
2022-10-22T14:54:35.377Z,25.40
2022-10-22T14:57:04.988Z,23.65
2022-10-22T14:59:34.327Z,24.55
2022-10-22T15:02:03.973Z,22.67
2022-10-22T15:04:34.719Z,23.17
2022-10-22T15:07:04.594Z,22.45
2022-10-22T15:09:34.067Z,21.98
2022-10-22T15:12:03.903Z,21.63
2022-10-22T15:14:33.259Z,18.85
2022-10-22T15:17:02.814Z,21.20
2022-10-22T15:19:33.489Z,22.08
2022-10-22T15:22:03.018Z,21.15
2022-10-22T15:24:32.407Z,20.30
2022-10-22T15:27:03.381Z,20.77
2022-10-22T15:29:33.251Z,21.08
2022-10-22T15:32:08.924Z,21.20
2022-10-22T15:34:40.929Z,20.42
2022-10-22T15:37:12.115Z,19.27
2022-10-22T15:39:42.314Z,21.20
2022-10-22T15:42:16.078Z,22.25
2022-10-22T15:44:45.681Z,19.08
2022-10-22T15:47:15.329Z,20.13
2022-10-22T15:49:46.242Z,19.45
2022-10-22T15:52:16.211Z,20.17
2022-10-22T15:54:45.510Z,18.73
2022-10-22T15:57:15.675Z,17.73
2022-10-22T15:59:50.184Z,17.42
2022-10-22T16:02:22.536Z,18.70
2022-10-22T16:04:53.450Z,18.50
2022-10-22T16:07:24.761Z,19.77
2022-10-22T16:09:58.785Z,18.35
2022-10-22T16:12:28.332Z,18.52
2022-10-22T16:14:57.810Z,17.25
2022-10-22T16:17:27.369Z,19.17
2022-10-22T16:19:58.089Z,18.95
2022-10-22T16:22:27.828Z,18.30
2022-10-22T16:24:57.289Z,17.20
2022-10-22T16:27:29.455Z,18.42
2022-10-22T16:29:58.749Z,18.50
2022-10-22T16:32:28.495Z,18.67
2022-10-22T16:34:59.396Z,18.08
2022-10-22T16:37:29.346Z,17.77
2022-10-22T16:39:58.628Z,17.30
2022-10-22T16:42:28.432Z,17.52
2022-10-22T16:44:57.914Z,18.75
2022-10-22T16:47:27.669Z,18.95
2022-10-22T16:50:00.948Z,18.38
2022-10-22T16:52:30.806Z,18.15
2022-10-22T16:55:01.298Z,18.23
2022-10-22T16:57:32.457Z,19.27
2022-10-22T17:00:01.964Z,17.83
2022-10-22T17:02:31.746Z,17.58
2022-10-22T17:05:02.577Z,18.80
2022-10-22T17:07:32.126Z,18.65
2022-10-22T17:10:03.645Z,19.67
2022-10-22T17:12:35.523Z,20.35
2022-10-22T17:15:05.541Z,18.08
2022-10-22T17:17:35.734Z,20.00
2022-10-22T17:20:07.822Z,18.33
2022-10-22T17:22:37.506Z,20.17
2022-10-22T17:25:16.358Z,20.33
2022-10-22T17:27:53.945Z,17.83
2022-10-22T17:30:27.236Z,21.58
2022-10-22T17:32:56.961Z,18.52
2022-10-22T17:38:02.160Z,19.75
2022-10-22T17:40:31.417Z,18.90
2022-10-22T17:43:00.905Z,19.67
2022-10-22T17:45:30.199Z,20.33
2022-10-22T17:47:59.601Z,20.30
2022-10-22T17:50:30.207Z,21.80
2022-10-22T17:52:59.729Z,19.63
2022-10-22T17:55:29.514Z,20.05
2022-10-22T17:57:59.058Z,18.23
2022-10-22T18:00:29.520Z,18.85
2022-10-22T18:02:59.867Z,16.50
2022-10-22T18:05:30.589Z,19.23
2022-10-22T18:08:03.185Z,17.48
2022-10-22T18:10:34.739Z,17.67
2022-10-22T18:13:04.251Z,16.15
2022-10-22T18:15:34.052Z,15.82
2022-10-22T18:18:03.551Z,15.45
2022-10-22T18:20:34.258Z,15.00
2022-10-22T18:23:04.608Z,15.70
2022-10-22T18:28:08.174Z,16.17
2022-10-22T18:30:40.929Z,16.50
2022-10-22T18:33:12.188Z,14.75
2022-10-22T18:35:42.902Z,15.50
2022-10-22T18:38:12.650Z,16.13
2022-10-22T18:40:46.705Z,15.90
2022-10-22T18:43:19.998Z,15.20
2022-10-22T18:45:50.128Z,15.27
2022-10-22T18:48:22.947Z,15.27
2022-10-22T18:51:02.076Z,13.48
2022-10-22T18:53:31.644Z,13.05
2022-10-22T18:56:00.955Z,12.90
2022-10-22T18:58:30.385Z,12.93
2022-10-22T19:00:59.816Z,12.85
2022-10-22T19:03:29.202Z,12.85
2022-10-22T19:06:00.272Z,14.27
2022-10-22T19:08:29.940Z,14.27
2022-10-22T19:10:59.248Z,12.93
2022-10-22T19:13:28.899Z,12.05
2022-10-22T19:16:04.083Z,12.80
2022-10-22T19:18:34.075Z,12.02
2022-10-22T19:21:05.228Z,11.50
2022-10-22T19:23:34.830Z,12.48
2022-10-22T19:26:05.855Z,12.00
2022-10-22T19:28:35.578Z,11.45
2022-10-22T19:31:07.219Z,10.45
2022-10-22T19:33:37.668Z,11.45
2022-10-22T19:36:10.300Z,11.00
2022-10-22T19:38:42.143Z,10.45
2022-10-22T19:41:13.262Z,11.38
2022-10-22T19:43:43.381Z,9.90
2022-10-22T19:46:13.420Z,9.25
2022-10-22T19:48:43.135Z,8.80
2022-10-22T19:51:21.165Z,9.00
2022-10-22T19:53:51.364Z,9.52
2022-10-22T19:56:21.811Z,8.90
2022-10-22T19:58:53.826Z,9.18
2022-10-22T20:01:23.387Z,9.57
2022-10-22T20:03:53.275Z,8.70
2022-10-22T20:06:24.098Z,8.70
2022-10-22T20:08:56.046Z,8.63
2022-10-22T20:11:27.799Z,8.90
2022-10-22T20:13:57.949Z,9.05
2022-10-22T20:16:30.044Z,9.70
2022-10-22T20:19:02.965Z,9.18
2022-10-22T20:21:34.521Z,9.07
2022-10-22T20:24:07.377Z,8.05
2022-10-22T20:26:40.186Z,8.90
2022-10-22T20:29:11.399Z,8.40
2022-10-22T20:31:41.866Z,8.48
2022-10-22T20:34:11.470Z,8.75
2022-10-22T20:36:42.258Z,8.73
2022-10-22T20:39:15.925Z,8.65
2022-10-22T20:41:45.274Z,8.55
2022-10-22T20:44:17.871Z,8.63
2022-10-22T20:46:49.459Z,8.73
2022-10-22T20:49:20.966Z,7.85
2022-10-22T20:51:51.924Z,8.40
2022-10-22T20:54:21.451Z,9.98
2022-10-22T20:56:50.950Z,8.65
2022-10-22T20:59:20.644Z,8.20
2022-10-22T21:01:51.398Z,7.47
2022-10-22T21:04:22.507Z,8.60
2022-10-22T21:06:53.871Z,8.07
2022-10-22T21:09:23.450Z,8.65
2022-10-22T21:14:28.591Z,8.60
2022-10-22T21:16:59.275Z,8.38
2022-10-22T21:19:29.268Z,8.75
2022-10-22T21:22:00.124Z,8.73
2022-10-22T21:24:29.581Z,8.63
2022-10-22T21:26:59.033Z,8.52
2022-10-22T21:29:28.702Z,8.82
2022-10-22T21:31:58.096Z,7.82
2022-10-22T21:34:28.453Z,8.65
2022-10-22T21:36:59.088Z,7.75
2022-10-22T21:39:28.776Z,7.47
2022-10-22T21:41:57.980Z,7.97
2022-10-22T21:44:27.668Z,7.55
2022-10-22T21:46:57.395Z,7.50
2022-10-22T21:49:26.950Z,6.40
2022-10-22T21:51:56.169Z,6.55
2022-10-22T21:54:27.327Z,7.10
2022-10-22T21:56:56.675Z,7.80
2022-10-22T21:59:26.263Z,7.57
2022-10-22T22:01:56.660Z,6.78
2022-10-22T22:04:26.278Z,6.70
2022-10-22T22:06:55.706Z,5.82
2022-10-22T22:09:26.723Z,6.78
2022-10-22T22:11:56.035Z,6.00
2022-10-22T22:14:25.477Z,6.53
2022-10-22T22:16:54.755Z,5.80
2022-10-22T22:19:24.149Z,5.97
2022-10-22T22:21:53.620Z,6.13
2022-10-22T22:24:23.131Z,6.70
2022-10-22T22:26:53.760Z,6.53
2022-10-22T22:29:23.169Z,6.35
2022-10-22T22:31:52.465Z,6.72
2022-10-22T22:34:21.960Z,6.95
2022-10-22T22:36:51.306Z,6.70
2022-10-22T22:39:22.931Z,6.95
2022-10-22T22:41:53.598Z,7.07
2022-10-22T22:44:23.119Z,7.07
2022-10-22T22:46:52.699Z,7.60
2022-10-22T22:49:22.123Z,5.47
2022-10-22T22:51:51.488Z,6.65
2022-10-22T22:54:21.071Z,6.85
2022-10-22T22:56:53.176Z,7.07
2022-10-22T22:59:22.650Z,6.22
2022-10-22T23:01:52.272Z,6.78
2022-10-22T23:04:23.914Z,7.32
2022-10-22T23:06:53.938Z,6.40
2022-10-22T23:09:23.634Z,6.55
2022-10-22T23:11:54.404Z,6.13
2022-10-22T23:14:23.795Z,6.00
2022-10-22T23:16:54.184Z,6.68
2022-10-22T23:19:24.540Z,6.07
2022-10-22T23:21:55.769Z,6.07
2022-10-22T23:24:28.015Z,5.85
2022-10-22T23:27:01.544Z,6.32
2022-10-22T23:29:33.128Z,5.53
2022-10-22T23:32:03.496Z,5.78
2022-10-22T23:34:33.951Z,5.78
2022-10-22T23:37:03.305Z,5.90
2022-10-22T23:39:33.057Z,5.95
2022-10-22T23:42:03.990Z,5.32
2022-10-22T23:44:33.696Z,6.75
2022-10-22T23:47:03.149Z,6.10
2022-10-22T23:49:33.110Z,6.47
2022-10-22T23:52:02.511Z,6.68
2022-10-22T23:54:32.183Z,5.50
2022-10-22T23:57:02.925Z,6.53
2022-10-22T23:59:32.568Z,5.68
